Time;durP1;ratioP1;P1;durP2;ratioP2;P2;SDS_P1;SDS_P2;PMS_P1;PMS_P2;Temp;Humidity;BMP_temperature;BMP_pressure;BME280_temperature;BME280_humidity;BME280_pressure;Samples;Min_cycle;Max_cycle;Signal;HPM_P1;HPM_P2
2024/02/18 00:00:14;;;;;;;10.48;5.93;;;;;;;8.25;48.85;99988.16;5052023;28;20041;-77
2024/02/18 00:02:39;;;;;;;9.55;6.00;;;;;;;8.23;48.81;99983.00;5035823;28;20135;-77
2024/02/18 00:05:06;;;;;;;9.70;5.75;;;;;;;8.21;48.79;99992.66;5036278;28;20424;-77
2024/02/18 00:07:31;;;;;;;11.90;5.80;;;;;;;8.21;49.03;99981.41;5019399;28;20029;-77
2024/02/18 00:09:57;;;;;;;12.38;5.75;;;;;;;8.17;48.91;99982.47;5052823;28;20041;-77
2024/02/18 00:12:24;;;;;;;9.18;5.47;;;;;;;8.15;48.82;99978.16;5035124;28;20029;-77
2024/02/18 00:14:51;;;;;;;9.88;5.85;;;;;;;8.09;49.24;99967.22;5051863;28;20035;-78
2024/02/18 00:17:16;;;;;;;10.48;5.75;;;;;;;8.13;48.82;99976.56;5035156;28;20131;-77
2024/02/18 00:19:42;;;;;;;9.18;5.45;;;;;;;8.12;49.04;99974.88;5051663;28;20467;-79
2024/02/18 00:22:07;;;;;;;12.52;5.95;;;;;;;8.11;48.84;99968.84;5034941;28;20559;-77
2024/02/18 00:24:33;;;;;;;10.05;5.93;;;;;;;8.10;49.21;99971.50;5052919;28;20040;-76
2024/02/18 00:26:58;;;;;;;10.48;6.18;;;;;;;8.09;48.93;99973.25;5053303;28;20132;-77
2024/02/18 00:29:24;;;;;;;10.05;5.93;;;;;;;8.08;48.54;99966.38;5035161;28;20033;-77
2024/02/18 00:31:49;;;;;;;10.60;5.55;;;;;;;8.04;49.33;99959.63;5052967;28;20021;-76
2024/02/18 00:34:20;;;;;;;9.95;6.25;;;;;;;8.01;48.87;99959.75;5051440;28;20033;-76
2024/02/18 00:36:46;;;;;;;9.82;5.57;;;;;;;8.07;49.12;99962.09;5020124;28;20539;-77
2024/02/18 00:39:12;;;;;;;9.43;6.10;;;;;;;8.05;48.98;99965.66;5018668;28;20241;-77
2024/02/18 00:41:37;;;;;;;11.85;6.35;;;;;;;7.97;48.89;99956.47;5034839;28;20443;-77
2024/02/18 00:44:03;;;;;;;9.68;5.82;;;;;;;7.99;48.86;99953.78;5034700;28;20499;-75
2024/02/18 00:46:28;;;;;;;11.00;6.07;;;;;;;8.02;48.88;99965.78;5018272;28;20033;-77
2024/02/18 00:48:54;;;;;;;9.98;5.60;;;;;;;7.95;49.31;99957.44;5034827;28;20364;-76
2024/02/18 00:51:19;;;;;;;11.20;6.00;;;;;;;7.97;49.46;99958.22;5051562;28;20464;-76
2024/02/18 00:53:45;;;;;;;9.82;5.82;;;;;;;7.95;49.14;99952.25;5051379;28;20118;-77
2024/02/18 00:56:10;;;;;;;10.65;6.53;;;;;;;7.90;49.32;99943.81;5050850;28;20512;-75
2024/02/18 00:58:36;;;;;;;10.93;6.25;;;;;;;7.94;48.97;99961.81;5051225;28;20057;-76
2024/02/18 01:01:03;;;;;;;10.60;5.65;;;;;;;7.89;49.25;99944.72;5034233;28;20025;-77
2024/02/18 01:03:28;;;;;;;10.70;6.03;;;;;;;7.87;49.05;99949.16;5018439;28;20048;-76
2024/02/18 01:05:54;;;;;;;11.07;5.75;;;;;;;7.90;49.23;99957.66;5034457;28;20500;-76
2024/02/18 01:08:19;;;;;;;8.57;5.50;;;;;;;7.88;49.25;99958.66;5018037;28;20108;-76
2024/02/18 01:10:45;;;;;;;13.25;6.78;;;;;;;7.82;48.91;99945.94;5051216;28;20051;-76
2024/02/18 01:13:10;;;;;;;11.32;6.28;;;;;;;7.84;49.02;99950.13;5034056;28;20063;-77
2024/02/18 01:15:38;;;;;;;10.32;6.38;;;;;;;7.83;49.24;99950.19;5034094;28;20036;-76
2024/02/18 01:18:03;;;;;;;11.98;6.30;;;;;;;7.77;48.95;99944.38;5050494;28;20124;-77
2024/02/18 01:20:29;;;;;;;13.73;6.30;;;;;;;7.78;49.28;99940.88;5014865;28;20130;-76
2024/02/18 01:22:54;;;;;;;11.38;6.53;;;;;;;7.76;49.27;99940.09;5014672;28;20029;-76
2024/02/18 01:25:20;;;;;;;13.45;6.45;;;;;;;7.77;49.21;99936.56;5014570;28;20105;-77
2024/02/18 01:27:46;;;;;;;13.43;6.57;;;;;;;7.74;48.94;99943.69;5030956;28;20056;-77
2024/02/18 01:30:12;;;;;;;12.07;6.82;;;;;;;7.68;48.94;99925.75;5029542;28;20045;-76
2024/02/18 01:32:38;;;;;;;11.77;7.07;;;;;;;7.70;49.48;99932.56;5029929;28;20042;-77
2024/02/18 01:35:04;;;;;;;11.73;6.88;;;;;;;7.65;49.28;99924.13;5030692;28;20124;-76
2024/02/18 01:37:29;;;;;;;11.80;6.85;;;;;;;7.70;49.21;99929.13;5013872;28;20033;-77
2024/02/18 01:39:55;;;;;;;12.15;6.38;;;;;;;7.69;49.39;99933.47;5046429;28;20025;-77
2024/02/18 01:42:21;;;;;;;12.55;7.25;;;;;;;7.66;49.22;99923.22;4997555;28;20056;-76
2024/02/18 01:44:46;;;;;;;12.55;6.78;;;;;;;7.62;49.61;99916.47;5029553;28;20077;-76
2024/02/18 01:47:12;;;;;;;12.77;7.18;;;;;;;7.64;49.57;99922.47;5014125;28;20061;-76
2024/02/18 01:49:37;;;;;;;13.98;7.35;;;;;;;7.59;49.57;99919.19;5014178;28;20030;-77
2024/02/18 01:52:03;;;;;;;10.77;6.13;;;;;;;7.52;49.58;99903.03;5014133;28;20080;-77
2024/02/18 01:54:33;;;;;;;12.25;7.65;;;;;;;7.61;49.73;99922.59;5030496;28;20029;-76
2024/02/18 01:57:01;;;;;;;11.65;6.55;;;;;;;7.55;49.37;99915.06;5030452;28;20072;-76
2024/02/18 01:59:27;;;;;;;;;;;;;;;7.58;49.11;99917.53;5013531;28;20050;-75
2024/02/18 02:01:53;;;;;;;13.50;6.43;;;;;;;7.52;49.38;99913.44;5030322;28;19909;-77
2024/02/18 02:04:18;;;;;;;15.10;6.55;;;;;;;7.50;49.53;99910.06;5046896;28;20029;-77
2024/02/18 02:06:44;;;;;;;11.38;6.88;;;;;;;7.48;49.32;99906.72;5030241;28;20416;-76
2024/02/18 02:09:09;;;;;;;11.45;6.38;;;;;;;7.45;49.27;99904.25;5014081;28;20030;-76
2024/02/18 02:11:35;;;;;;;12.48;6.93;;;;;;;7.44;49.60;99905.16;5013994;28;20038;-76
2024/02/18 02:14:01;;;;;;;10.43;6.78;;;;;;;7.41;49.75;99906.13;5030209;28;20041;-77
2024/02/18 02:16:27;;;;;;;11.57;6.88;;;;;;;7.41;49.41;99906.13;5030839;28;20569;-76
2024/02/18 02:18:53;;;;;;;10.73;6.55;;;;;;;7.40;49.90;99911.38;5014028;28;20033;-76
2024/02/18 02:21:18;;;;;;;12.48;6.88;;;;;;;7.36;49.29;99904.66;5046878;28;20477;-77
2024/02/18 02:23:43;;;;;;;12.52;7.03;;;;;;;7.28;49.74;99888.56;5050147;28;20095;-76
2024/02/18 02:26:11;;;;;;;11.80;7.05;;;;;;;7.34;49.41;99899.53;5033391;28;20111;-77
2024/02/18 02:28:38;;;;;;;14.30;6.63;;;;;;;7.34;49.36;99907.31;5033412;28;20036;-77
2024/02/18 02:31:04;;;;;;;12.32;6.28;;;;;;;7.31;49.63;99904.84;5033289;28;20454;-77
2024/02/18 02:33:30;;;;;;;10.88;6.38;;;;;;;7.33;49.23;99904.78;5032797;28;20033;-77
2024/02/18 02:35:55;;;;;;;12.00;6.57;;;;;;;7.23;49.60;99897.41;5050853;28;20031;-78
2024/02/18 02:38:21;;;;;;;14.45;7.10;;;;;;;7.23;49.81;99902.59;5032875;28;20040;-78
2024/02/18 02:40:46;;;;;;;15.35;6.82;;;;;;;7.25;49.74;99903.38;5049884;28;20036;-77
2024/02/18 02:43:12;;;;;;;11.65;6.60;;;;;;;7.26;49.61;99906.81;5050112;28;20494;-77
2024/02/18 02:45:38;;;;;;;14.23;6.85;;;;;;;7.20;49.73;99902.72;5051243;28;20523;-77
2024/02/18 02:48:03;;;;;;;12.73;6.82;;;;;;;7.23;49.56;99906.97;5037427;28;20476;-77
2024/02/18 02:50:29;;;;;;;12.95;6.68;;;;;;;7.23;49.96;99918.19;5053559;28;20124;-77
2024/02/18 02:52:55;;;;;;;10.05;6.05;;;;;;;7.20;49.82;99912.28;5052533;28;20112;-77
2024/02/18 02:55:20;;;;;;;10.80;6.78;;;;;;;7.19;50.11;99908.00;5053342;28;20379;-77
2024/02/18 02:57:48;;;;;;;10.70;6.45;;;;;;;7.22;49.26;99905.25;5054250;28;20055;-77
2024/02/18 03:00:14;;;;;;;11.65;7.03;;;;;;;7.20;50.31;99909.69;5053253;28;20040;-77
2024/02/18 03:02:39;;;;;;;11.73;6.88;;;;;;;7.20;49.92;99910.53;5053264;28;20472;-76
2024/02/18 03:05:05;;;;;;;10.95;6.22;;;;;;;7.17;49.78;99912.41;5051372;28;20040;-76
2024/02/18 03:07:31;;;;;;;13.50;7.15;;;;;;;7.18;49.39;99907.16;5050852;28;20028;-77
2024/02/18 03:09:56;;;;;;;13.77;6.95;;;;;;;7.12;49.65;99898.78;5035875;28;20511;-77
2024/02/18 03:12:22;;;;;;;10.13;5.97;;;;;;;7.16;49.82;99905.53;5019870;28;20132;-77
2024/02/18 03:14:48;;;;;;;13.52;6.78;;;;;;;7.13;50.20;99903.06;5020986;28;20037;-78
2024/02/18 03:17:13;;;;;;;12.55;6.82;;;;;;;7.11;50.26;99897.09;5052936;28;20059;-78
2024/02/18 03:19:39;;;;;;;11.68;6.43;;;;;;;7.13;49.67;99903.06;5036291;28;20106;-76
2024/02/18 03:22:05;;;;;;;14.38;7.63;;;;;;;7.12;50.00;99906.59;5053231;28;20087;-76
2024/02/18 03:24:31;;;;;;;13.77;7.28;;;;;;;7.10;50.09;99896.25;5054234;28;20044;-76
2024/02/18 03:26:56;;;;;;;12.07;6.57;;;;;;;7.03;50.28;99900.84;5018948;28;20053;-77
2024/02/18 03:29:22;;;;;;;14.07;6.65;;;;;;;7.06;50.20;99911.13;5053362;28;20040;-76
2024/02/18 03:31:53;;;;;;;11.80;7.47;;;;;;;7.05;50.25;99905.97;5036488;28;20044;-77
2024/02/18 03:34:19;;;;;;;12.98;7.15;;;;;;;6.97;49.70;99903.72;5053305;28;20066;-77
2024/02/18 03:36:44;;;;;;;12.10;6.90;;;;;;;7.02;50.01;99911.31;5035997;28;20464;-78
2024/02/18 03:39:10;;;;;;;12.02;6.90;;;;;;;6.98;49.81;99907.16;5052168;28;20106;-78
2024/02/18 03:41:35;;;;;;;11.65;7.05;;;;;;;7.01;50.56;99912.25;5052306;28;20052;-78
2024/02/18 03:44:01;;;;;;;10.77;6.40;;;;;;;6.95;50.27;99905.53;5035474;28;20074;-76
2024/02/18 03:46:29;;;;;;;12.82;6.95;;;;;;;6.99;50.66;99912.31;5052221;28;20059;-77
2024/02/18 03:48:56;;;;;;;11.60;6.70;;;;;;;6.99;50.50;99911.44;5019476;28;20053;-75
2024/02/18 03:51:21;;;;;;;13.52;7.50;;;;;;;6.99;50.50;99921.81;5052024;28;20079;-77
2024/02/18 03:53:47;;;;;;;14.23;7.60;;;;;;;6.97;50.77;99914.09;5019022;28;20492;-77
2024/02/18 03:56:12;;;;;;;12.45;7.90;;;;;;;6.96;50.18;99912.44;5053050;28;20036;-77
2024/02/18 03:58:38;;;;;;;17.02;7.97;;;;;;;6.94;50.25;99913.38;5053678;28;20508;-78
2024/02/18 04:01:03;;;;;;;15.25;8.45;;;;;;;6.96;50.60;99916.75;5052454;28;20039;-77
2024/02/18 04:03:29;;;;;;;13.70;7.43;;;;;;;6.94;50.45;99924.63;5018652;28;20032;-77
2024/02/18 04:05:54;;;;;;;12.60;7.80;;;;;;;6.94;50.77;99926.38;5034947;28;20534;-77
2024/02/18 04:08:20;;;;;;;14.82;8.18;;;;;;;6.93;50.59;99927.28;5018671;28;20029;-76
2024/02/18 04:10:45;;;;;;;14.07;7.78;;;;;;;6.89;50.73;99921.38;5050783;28;20061;-76
2024/02/18 04:13:11;;;;;;;17.27;8.15;;;;;;;6.88;50.65;99927.50;5032515;28;20118;-77
2024/02/18 04:15:36;;;;;;;13.32;7.60;;;;;;;6.89;50.86;99923.97;5032805;28;20060;-77
2024/02/18 04:18:02;;;;;;;15.70;9.02;;;;;;;6.84;50.78;99918.13;5049303;28;20037;-76
2024/02/18 04:20:27;;;;;;;18.02;8.25;;;;;;;6.86;50.77;99924.97;5032499;28;20025;-77
2024/02/18 04:22:53;;;;;;;15.38;8.60;;;;;;;6.85;50.87;99919.84;5033279;28;20033;-78
2024/02/18 04:25:18;;;;;;;14.63;7.82;;;;;;;6.85;50.61;99917.22;5017846;28;20033;-77
2024/02/18 04:27:44;;;;;;;14.55;7.95;;;;;;;6.84;50.65;99918.13;5018416;28;20452;-76
2024/02/18 04:30:10;;;;;;;12.82;7.65;;;;;;;6.82;50.61;99918.19;5051360;28;20036;-76
2024/02/18 04:32:35;;;;;;;13.82;7.78;;;;;;;6.81;50.58;99918.25;5035043;28;20032;-77
2024/02/18 04:35:01;;;;;;;12.07;7.78;;;;;;;6.80;50.58;99921.75;5018351;28;20033;-76
2024/02/18 04:37:26;;;;;;;14.65;8.65;;;;;;;6.75;51.00;99915.91;5052372;28;20028;-76
2024/02/18 04:39:52;;;;;;;16.13;8.38;;;;;;;6.72;50.92;99903.94;5034686;28;20095;-78
2024/02/18 04:42:17;;;;;;;15.02;8.43;;;;;;;6.76;51.04;99920.22;5034921;28;20040;-78
2024/02/18 04:44:43;;;;;;;14.85;7.78;;;;;;;6.68;50.35;99913.56;5034386;28;20041;-77
2024/02/18 04:47:08;;;;;;;15.18;8.40;;;;;;;6.74;50.70;99922.03;5034695;28;20044;-78
2024/02/18 04:49:34;;;;;;;17.90;8.50;;;;;;;6.73;50.67;99915.97;5034673;28;20033;-77
2024/02/18 04:52:00;;;;;;;14.48;8.70;;;;;;;6.72;50.69;99916.03;5050556;28;20075;-77
2024/02/18 04:54:26;;;;;;;16.58;8.88;;;;;;;6.65;50.54;99908.50;5018410;28;20036;-76
2024/02/18 04:56:51;;;;;;;15.65;9.40;;;;;;;6.70;50.88;99923.88;5034168;28;20091;-78
2024/02/18 04:59:17;;;;;;;14.93;9.10;;;;;;;6.65;51.09;99918.88;5049434;28;20033;-78
2024/02/18 05:01:47;;;;;;;14.50;9.32;;;;;;;6.64;50.81;99917.22;5034695;28;20044;-77
2024/02/18 05:04:13;;;;;;;14.25;8.93;;;;;;;6.72;50.65;99918.63;5018403;28;20079;-77
2024/02/18 05:06:45;;;;;;;14.70;8.80;;;;;;;6.69;50.63;99922.22;5050955;28;20045;-77
2024/02/18 05:09:10;;;;;;;15.88;8.70;;;;;;;6.67;51.03;99922.28;5034292;28;20032;-77
2024/02/18 05:11:36;;;;;;;16.15;9.43;;;;;;;6.73;51.25;99928.13;5034337;28;20045;-78
2024/02/18 05:14:01;;;;;;;17.65;9.57;;;;;;;6.68;51.33;99912.75;5034355;28;20037;-77
2024/02/18 05:16:27;;;;;;;20.25;9.75;;;;;;;6.73;50.83;99918.56;5034055;28;20044;-77
2024/02/18 05:18:52;;;;;;;17.90;9.80;;;;;;;6.76;51.05;99917.63;5032792;28;20044;-77
2024/02/18 05:21:18;;;;;;;17.65;9.75;;;;;;;6.72;50.91;99911.72;5048639;28;20099;-77
2024/02/18 05:23:43;;;;;;;18.27;9.68;;;;;;;6.76;50.35;99908.06;5033390;28;20037;-79
2024/02/18 05:26:09;;;;;;;15.68;9.30;;;;;;;6.84;50.24;99924.16;5034491;28;20116;-77
2024/02/18 05:28:35;;;;;;;19.15;10.02;;;;;;;6.91;50.58;99918.72;5017671;28;20408;-77
2024/02/18 05:31:01;;;;;;;18.10;9.10;;;;;;;7.05;50.16;99931.94;5034011;28;20041;-76
2024/02/18 05:33:26;;;;;;;18.08;9.70;;;;;;;7.21;49.89;99926.94;5034142;28;20206;-75
2024/02/18 05:35:51;;;;;;;16.30;9.00;;;;;;;7.40;49.68;99930.44;5035259;28;20716;-75
2024/02/18 05:38:17;;;;;;;17.55;9.45;;;;;;;7.57;49.70;99932.28;5049998;28;20025;-76
2024/02/18 05:40:42;;;;;;;15.23;9.05;;;;;;;7.67;49.50;99929.25;5015913;28;20048;-77
2024/02/18 05:43:08;;;;;;;17.75;9.60;;;;;;;7.90;48.76;99941.22;5015178;28;20036;-77
2024/02/18 05:45:33;;;;;;;16.15;8.95;;;;;;;8.04;48.58;99930.19;5049219;28;20053;-77
2024/02/18 05:47:59;;;;;;;19.65;9.70;;;;;;;8.34;48.13;99936.53;5032967;28;20029;-76
2024/02/18 05:50:25;;;;;;;18.42;10.13;;;;;;;8.56;48.13;99929.50;5049343;28;20040;-77
2024/02/18 05:52:50;;;;;;;19.63;10.70;;;;;;;8.70;47.41;99929.66;5049626;28;20025;-77
2024/02/18 05:55:16;;;;;;;34.80;18.27;;;;;;;9.08;47.22;99952.06;5049728;28;20040;-76
2024/02/18 05:57:41;;;;;;;28.95;16.65;;;;;;;9.35;46.73;99945.44;5033247;28;20128;-77
2024/02/18 06:00:07;;;;;;;36.33;19.83;;;;;;;9.69;45.96;99940.22;5033491;28;20032;-78
2024/02/18 06:02:33;;;;;;;33.13;18.90;;;;;;;10.09;45.42;99958.94;5017027;28;20025;-77
2024/02/18 06:04:58;;;;;;;37.90;20.33;;;;;;;10.42;44.90;99950.19;5033014;28;20037;-78
2024/02/18 06:07:24;;;;;;;37.05;21.38;;;;;;;10.77;44.20;99958.66;5049627;28;20025;-79
2024/02/18 06:09:49;;;;;;;45.38;26.33;;;;;;;11.12;43.86;99960.13;5043212;28;20112;-79
2024/02/18 06:12:14;;;;;;;41.03;23.90;;;;;;;11.55;42.77;99968.84;5022247;28;20032;-79
2024/02/18 06:14:40;;;;;;;44.83;27.20;;;;;;;12.02;42.42;99966.88;5037034;28;20034;-78
2024/02/18 06:17:05;;;;;;;50.60;29.73;;;;;;;12.40;41.36;99954.94;5020313;28;20535;-79
2024/02/18 06:19:31;;;;;;;43.88;26.13;;;;;;;12.85;40.82;99947.59;5039836;28;20044;-80
2024/02/18 06:21:56;;;;;;;37.38;23.60;;;;;;;13.46;39.96;99963.63;5026327;28;20041;-78
2024/02/18 06:24:27;;;;;;;44.92;24.88;;;;;;;13.73;39.50;99965.28;5027338;28;20041;-78
2024/02/18 06:26:53;;;;;;;39.25;25.33;;;;;;;14.31;38.66;99960.31;5042325;28;21327;-78
2024/02/18 06:29:18;;;;;;;39.70;25.30;;;;;;;14.90;37.68;99964.78;5023249;28;20401;-78
2024/02/18 06:31:44;;;;;;;39.63;26.08;;;;;;;15.43;36.81;99969.53;5020522;28;20033;-78
2024/02/18 06:34:09;;;;;;;31.17;21.13;;;;;;;15.99;35.93;99965.28;5054119;28;20025;-81
2024/02/18 06:36:35;;;;;;;30.98;20.83;;;;;;;16.59;35.25;99973.63;5053171;28;20044;-78
2024/02/18 06:39:01;;;;;;;25.65;18.70;;;;;;;17.10;34.47;99967.66;5054623;28;20033;-79
2024/02/18 06:41:26;;;;;;;25.85;17.23;;;;;;;17.65;33.79;99970.03;5052833;28;20067;-78
2024/02/18 06:43:52;;;;;;;23.02;16.63;;;;;;;18.14;32.95;99970.22;5053357;28;20480;-78
2024/02/18 06:46:17;;;;;;;22.80;16.50;;;;;;;18.52;32.90;99975.72;5037171;28;20029;-79
2024/02/18 06:48:43;;;;;;;22.30;16.70;;;;;;;18.88;32.38;99965.44;5054846;28;20024;-77
2024/02/18 06:51:08;;;;;;;26.42;19.00;;;;;;;19.44;31.33;99963.81;5052652;28;20087;-78
2024/02/18 06:53:34;;;;;;;24.88;17.70;;;;;;;20.12;30.40;99957.38;5052106;28;20526;-77
2024/02/18 06:55:59;;;;;;;23.50;16.25;;;;;;;20.86;29.24;99960.75;5054241;28;20029;-78
2024/02/18 06:58:25;;;;;;;13.65;9.82;;;;;;;21.45;33.97;99959.16;5036593;28;20413;-84
2024/02/18 07:00:50;;;;;;;9.88;7.22;;;;;;;22.17;36.01;99966.81;5036905;28;20037;-76
2024/02/18 07:03:16;;;;;;;11.57;6.97;;;;;;;22.88;35.07;99958.41;5039790;28;20060;-75
2024/02/18 07:05:42;;;;;;;12.35;7.38;;;;;;;23.63;33.82;99959.97;5023262;28;20182;-79
2024/02/18 07:08:08;;;;;;;16.80;8.32;;;;;;;24.33;32.07;99969.00;5057108;28;20036;-85
2024/02/18 07:10:33;;;;;;;19.25;8.68;;;;;;;24.78;31.67;99961.19;5042785;28;20029;-77
2024/02/18 07:12:59;;;;;;;17.52;8.45;;;;;;;24.63;31.80;99956.63;5054230;28;20037;-76
2024/02/18 07:15:24;;;;;;;15.07;8.90;;;;;;;24.85;31.25;99959.47;5053163;28;20025;-77
2024/02/18 07:17:50;;;;;;;17.20;8.60;;;;;;;25.04;30.68;99968.81;5053133;28;20090;-76
2024/02/18 07:20:15;;;;;;;11.60;8.43;;;;;;;26.33;28.64;99972.00;5020532;28;20041;-73
2024/02/18 07:22:44;;;;;;;13.20;8.90;;;;;;;27.26;27.18;99963.97;5054669;28;20029;-77
2024/02/18 07:25:10;;;;;;;11.10;8.38;;;;;;;27.84;26.10;99962.03;5052007;28;20094;-86
2024/02/18 07:27:35;;;;;;;15.25;9.38;;;;;;;27.72;26.05;99962.63;5019127;28;20463;-80
2024/02/18 07:30:03;;;;;;;16.17;8.70;;;;;;;27.36;26.96;99969.00;5052823;28;20480;-81
2024/02/18 07:32:28;;;;;;;13.25;9.25;;;;;;;27.50;26.70;99961.88;5012152;28;20497;-86
2024/02/18 07:34:54;;;;;;;21.42;9.57;;;;;;;27.76;26.21;99963.84;5015697;28;20040;-84
2024/02/18 07:37:20;;;;;;;12.70;8.60;;;;;;;27.74;25.72;99960.56;5016568;28;20481;-83
2024/02/18 07:39:45;;;;;;;14.98;9.48;;;;;;;27.67;25.57;99961.53;5020332;28;20044;-78
2024/02/18 07:42:11;;;;;;;14.57;9.77;;;;;;;27.36;25.67;99957.47;5033946;28;20045;-75
2024/02/18 07:44:36;;;;;;;17.50;9.93;;;;;;;27.18;26.34;99955.25;5035037;28;20120;-74
2024/02/18 07:47:03;;;;;;;13.57;10.10;;;;;;;26.94;26.21;99961.88;5034796;28;20032;-79
2024/02/18 07:49:29;;;;;;;14.93;9.53;;;;;;;26.63;26.83;99957.66;5018121;28;20034;-78
2024/02/18 07:51:54;;;;;;;20.33;10.70;;;;;;;26.60;26.12;99958.03;5032424;28;20099;-81
2024/02/18 07:54:20;;;;;;;16.95;11.00;;;;;;;26.57;25.85;99951.25;5031227;28;20108;-81
2024/02/18 07:56:47;;;;;;;14.15;10.93;;;;;;;26.67;25.94;99950.94;5033029;28;20041;-81
2024/02/18 07:59:12;;;;;;;12.77;10.88;;;;;;;26.70;26.15;99948.69;5016608;28;20075;-82
2024/02/18 08:01:38;;;;;;;23.35;11.10;;;;;;;26.72;25.38;99951.19;5016194;28;20056;-78
2024/02/18 08:04:04;;;;;;;14.80;11.38;;;;;;;26.63;25.74;99954.97;5032794;28;20033;-78
2024/02/18 08:06:31;;;;;;;13.10;10.00;;;;;;;26.61;26.61;99951.69;5032443;28;20473;-77
2024/02/18 08:08:57;;;;;;;16.20;9.10;;;;;;;26.48;26.91;99944.34;5033773;28;20021;-81
2024/02/18 08:11:23;;;;;;;13.27;7.93;;;;;;;26.39;27.19;99954.34;5016594;28;20048;-83
2024/02/18 08:13:48;;;;;;;15.02;8.90;;;;;;;26.38;27.38;99951.84;5000020;28;20471;-78
2024/02/18 08:16:14;;;;;;;11.85;9.40;;;;;;;26.40;26.38;99952.53;5032711;28;20515;-79
2024/02/18 08:18:39;;;;;;;12.98;8.73;;;;;;;26.40;26.31;99956.00;5014892;28;20033;-78
2024/02/18 08:21:05;;;;;;;11.63;9.18;;;;;;;26.42;26.10;99959.31;5015451;28;20045;-77
2024/02/18 08:23:31;;;;;;;16.02;9.10;;;;;;;26.40;25.97;99947.16;5015685;28;20095;-78
2024/02/18 08:25:57;;;;;;;15.98;9.90;;;;;;;26.45;26.01;99958.94;5033136;28;20066;-79
2024/02/18 08:28:22;;;;;;;16.08;10.18;;;;;;;26.29;25.82;99954.66;5032316;28;20412;-80
2024/02/18 08:30:48;;;;;;;19.00;10.80;;;;;;;26.25;26.35;99949.88;5031959;28;20034;-81
2024/02/18 08:33:13;;;;;;;16.38;10.55;;;;;;;26.27;25.87;99950.53;5015155;28;20029;-78
2024/02/18 08:35:39;;;;;;;16.23;10.40;;;;;;;26.32;25.94;99943.59;5037809;28;20037;-78
2024/02/18 08:38:04;;;;;;;16.75;10.20;;;;;;;25.88;26.91;99939.16;5031957;28;20452;-77
2024/02/18 08:40:30;;;;;;;18.48;10.95;;;;;;;25.70;26.18;99944.09;5032347;28;20449;-82
2024/02/18 08:42:55;;;;;;;21.85;11.70;;;;;;;25.87;24.57;99942.88;5032436;28;20489;-80
2024/02/18 08:45:21;;;;;;;15.27;10.85;;;;;;;25.81;24.85;99928.38;5015527;28;20060;-78
2024/02/18 08:47:48;;;;;;;13.80;10.60;;;;;;;25.91;25.07;99954.81;5032306;28;20492;-76
2024/02/18 08:50:13;;;;;;;14.40;10.93;;;;;;;25.94;24.25;99942.94;5034802;28;20468;-76
2024/02/18 08:52:39;;;;;;;18.25;11.50;;;;;;;25.86;24.96;99948.41;5051310;28;20025;-77
2024/02/18 08:55:05;;;;;;;16.23;11.07;;;;;;;25.94;24.64;99953.63;5049410;28;20090;-77
2024/02/18 08:57:31;;;;;;;16.65;11.45;;;;;;;26.10;24.52;99947.25;5051917;28;20484;-76
2024/02/18 08:59:58;;;;;;;19.13;12.10;;;;;;;26.10;23.89;99947.25;5034732;28;20089;-78
2024/02/18 09:02:24;;;;;;;18.40;11.98;;;;;;;26.18;23.45;99945.28;5051920;28;20061;-79
2024/02/18 09:04:50;;;;;;;19.63;12.18;;;;;;;26.20;24.55;99950.44;5034428;28;20075;-75
2024/02/18 09:07:15;;;;;;;20.45;13.35;;;;;;;26.15;23.49;99955.53;5052650;28;20025;-73
2024/02/18 09:09:41;;;;;;;19.15;13.32;;;;;;;26.19;22.82;99943.47;5051455;28;20380;-78
2024/02/18 09:12:07;;;;;;;21.25;12.57;;;;;;;26.32;22.28;99943.59;5052343;28;20029;-77
2024/02/18 09:14:32;;;;;;;18.70;12.85;;;;;;;26.36;21.82;99949.38;5035318;28;20033;-78
2024/02/18 09:16:58;;;;;;;20.23;13.60;;;;;;;26.38;21.46;99939.31;5052266;28;20029;-79
2024/02/18 09:19:23;;;;;;;23.58;13.30;;;;;;;26.76;21.26;99949.78;5052400;28;20492;-79
2024/02/18 09:21:48;;;;;;;19.98;13.57;;;;;;;26.70;21.15;99953.25;5051299;28;20067;-78
2024/02/18 09:24:14;;;;;;;24.65;14.00;;;;;;;26.85;20.75;99947.78;5052294;28;20439;-79
2024/02/18 09:26:40;;;;;;;20.90;13.95;;;;;;;26.92;20.92;99946.00;5053091;28;20029;-79
2024/02/18 09:29:06;;;;;;;20.15;13.70;;;;;;;27.06;20.38;99938.91;5052242;28;20040;-79
2024/02/18 09:31:35;;;;;;;22.05;13.77;;;;;;;27.20;20.48;99929.06;5052538;28;20033;-80
2024/02/18 09:34:01;;;;;;;20.10;14.75;;;;;;;27.48;20.00;99941.66;5050601;28;20045;-80
2024/02/18 09:36:26;;;;;;;20.27;15.40;;;;;;;27.74;19.49;99936.41;5050056;28;20078;-80
2024/02/18 09:38:52;;;;;;;22.00;14.80;;;;;;;27.86;19.53;99944.69;5033903;28;20060;-80
2024/02/18 09:41:17;;;;;;;20.90;15.52;;;;;;;27.96;19.57;99947.88;5050546;28;20076;-78
2024/02/18 09:43:43;;;;;;;20.05;16.13;;;;;;;27.90;19.35;99945.13;5034282;28;20045;-79
2024/02/18 09:46:09;;;;;;;20.90;14.95;;;;;;;27.53;19.81;99934.69;5050966;28;20028;-79
2024/02/18 09:48:37;;;;;;;27.38;14.57;;;;;;;27.47;19.62;99948.03;5017567;28;20447;-79
2024/02/18 09:51:07;;;;;;;18.10;13.38;;;;;;;27.46;19.95;99936.47;5050984;28;20049;-79
2024/02/18 09:53:35;;;;;;;18.20;13.73;;;;;;;27.32;20.20;99942.78;5050413;28;20025;-80
2024/02/18 09:56:01;;;;;;;20.08;13.35;;;;;;;26.99;20.51;99927.28;5051717;28;20029;-81
2024/02/18 09:58:27;;;;;;;17.00;13.02;;;;;;;27.13;20.47;99929.03;5050786;28;20102;-79
2024/02/18 10:00:52;;;;;;;15.63;12.02;;;;;;;27.21;20.59;99920.84;5034801;28;20044;-79
2024/02/18 10:03:18;;;;;;;13.73;11.90;;;;;;;27.17;20.45;99908.88;5033963;28;20488;-80
2024/02/18 10:05:43;;;;;;;19.10;12.40;;;;;;;26.96;20.67;99908.91;5034370;28;20025;-81
2024/02/18 10:08:09;;;;;;;18.20;12.07;;;;;;;26.66;21.14;99901.94;5051060;28;20036;-78
2024/02/18 10:10:34;;;;;;;16.42;12.55;;;;;;;26.65;20.95;99905.63;5017159;28;20124;-81
2024/02/18 10:13:05;;;;;;;17.08;13.57;;;;;;;25.94;21.60;99892.13;5033836;28;20045;-79
2024/02/18 10:15:31;;;;;;;16.73;12.73;;;;;;;25.85;21.65;99895.91;5050299;28;20147;-79
2024/02/18 10:17:57;;;;;;;15.30;12.02;;;;;;;25.98;21.41;99891.56;5051490;28;20036;-80
2024/02/18 10:20:24;;;;;;;15.00;11.40;;;;;;;25.44;22.24;99890.09;5033881;28;20027;-79
2024/02/18 10:22:49;;;;;;;14.40;11.73;;;;;;;25.53;22.36;99898.00;5050423;28;20060;-79
2024/02/18 10:25:15;;;;;;;16.10;11.10;;;;;;;24.74;22.91;99889.44;5049589;28;20191;-80
2024/02/18 10:27:40;;;;;;;17.30;11.60;;;;;;;24.29;23.31;99888.47;5031977;28;20040;-79
2024/02/18 10:30:10;;;;;;;15.80;11.15;;;;;;;23.89;24.06;99884.25;5050457;28;20044;-79
2024/02/18 10:32:35;;;;;;;17.35;12.10;;;;;;;23.37;24.63;99883.78;5034533;28;20032;-78
2024/02/18 10:35:04;;;;;;;15.50;11.27;;;;;;;22.93;25.09;99876.22;5049757;28;20079;-79
2024/02/18 10:37:36;;;;;;;20.00;11.43;;;;;;;22.42;25.68;99870.28;5051672;28;20040;-80
2024/02/18 10:40:24;;;;;;;18.00;11.82;;;;;;;21.95;26.55;99877.00;5017569;28;20489;-80
2024/02/18 10:42:54;;;;;;;17.05;12.20;;;;;;;21.44;27.13;99877.81;5049657;28;20044;-79
2024/02/18 10:45:21;;;;;;;16.17;11.93;;;;;;;20.94;28.11;99871.41;5034468;28;20071;-80
2024/02/18 10:47:48;;;;;;;17.00;12.10;;;;;;;20.59;28.51;99872.31;5034065;28;20118;-80
2024/02/18 10:50:14;;;;;;;17.67;12.13;;;;;;;20.16;29.17;99874.75;5017106;28;20037;-79
2024/02/18 10:53:00;;;;;;;22.17;12.55;;;;;;;19.77;29.80;99882.16;5017554;28;20033;-81
2024/02/18 10:55:48;;;;;;;15.63;11.52;;;;;;;19.34;30.62;99871.19;5034955;28;20108;-79
2024/02/18 10:58:16;;;;;;;16.85;12.02;;;;;;;19.11;31.20;99878.63;5050835;28;20029;-80
2024/02/18 11:00:45;;;;;;;18.63;12.43;;;;;;;18.85;31.40;99865.19;5050086;28;20037;-79
2024/02/18 11:03:55;;;;;;;18.00;12.40;;;;;;;18.66;31.87;99872.16;5017246;28;20045;-79
2024/02/18 11:06:21;;;;;;;18.63;12.75;;;;;;;18.49;32.29;99868.41;5033611;28;20259;-81
2024/02/18 11:08:47;;;;;;;19.20;11.85;;;;;;;18.39;32.67;99870.22;5019234;28;20033;-78
2024/02/18 11:11:13;;;;;;;18.20;13.10;;;;;;;18.29;32.98;99861.47;5018906;28;20037;-78
2024/02/18 11:13:38;;;;;;;18.92;12.70;;;;;;;18.18;33.33;99863.25;5019417;28;20040;-79
2024/02/18 11:16:04;;;;;;;21.45;13.02;;;;;;;18.04;33.51;99853.97;5018877;28;20079;-80
2024/02/18 11:18:30;;;;;;;18.60;13.68;;;;;;;18.00;33.51;99859.66;5035329;28;20086;-80
2024/02/18 11:20:55;;;;;;;21.77;14.65;;;;;;;17.99;33.77;99864.09;5018826;28;20074;-79